createdAt,value
2023-08-13T00:00:43.086Z,101338.53
2023-08-13T00:03:09.730Z,101381.63
2023-08-13T00:05:36.488Z,101378.44
2023-08-13T00:08:02.925Z,101384.28
2023-08-13T00:10:29.395Z,101392.59
2023-08-13T00:12:55.906Z,101393.44
2023-08-13T00:15:22.620Z,101389.88
2023-08-13T00:17:49.083Z,101397.97
2023-08-13T00:20:16.202Z,101392.38
2023-08-13T00:22:42.892Z,101382.63
2023-08-13T00:25:09.711Z,101384.97
2023-08-13T00:27:36.185Z,101395.44
2023-08-13T00:30:02.687Z,101361.75
2023-08-13T00:32:29.174Z,101386.00
2023-08-13T00:34:55.854Z,101393.75
2023-08-13T00:37:22.356Z,101390.38
2023-08-13T00:39:48.837Z,101353.84
2023-08-13T00:42:15.583Z,101393.41
2023-08-13T00:44:42.280Z,101397.78
2023-08-13T00:47:10.503Z,101323.34
2023-08-13T00:49:36.984Z,101399.66
2023-08-13T00:52:03.607Z,101363.94
2023-08-13T00:54:30.918Z,101348.28
2023-08-13T00:56:57.640Z,101379.13
2023-08-13T00:59:25.060Z,101405.06
2023-08-13T01:01:51.991Z,101402.16
2023-08-13T01:04:18.830Z,101360.41
2023-08-13T01:07:12.978Z,101366.13
2023-08-13T01:09:57.494Z,101411.44
2023-08-13T01:12:38.703Z,101392.56
2023-08-13T01:15:12.679Z,101373.22
2023-08-13T01:17:40.834Z,101406.22
2023-08-13T01:20:10.542Z,101399.16
2023-08-13T01:22:46.698Z,101391.88
2023-08-13T01:25:14.594Z,101417.84
2023-08-13T01:27:57.907Z,101381.78
2023-08-13T01:30:34.205Z,101412.97
2023-08-13T01:33:04.478Z,101408.25
2023-08-13T01:35:32.165Z,101416.00
2023-08-13T01:38:00.827Z,101408.06
2023-08-13T01:40:27.961Z,101423.56
2023-08-13T01:42:54.597Z,101408.38
2023-08-13T01:45:21.150Z,101426.44
2023-08-13T01:47:48.477Z,101421.38
2023-08-13T01:50:15.096Z,101426.78
2023-08-13T01:52:41.529Z,101430.81
2023-08-13T01:55:08.787Z,101388.34
2023-08-13T01:57:35.630Z,101426.28
2023-08-13T02:00:02.123Z,101430.13
2023-08-13T02:02:28.758Z,101431.47
2023-08-13T02:04:55.352Z,101349.09
2023-08-13T02:07:21.837Z,101410.25
2023-08-13T02:09:48.334Z,101413.47
2023-08-13T02:12:14.867Z,101388.34
2023-08-13T02:14:41.714Z,101362.06
2023-08-13T02:17:13.756Z,101411.59
2023-08-13T02:19:41.254Z,101399.13
2023-08-13T02:22:08.657Z,101394.41
2023-08-13T02:24:35.132Z,101435.16
2023-08-13T02:27:01.609Z,101398.59
2023-08-13T02:29:28.274Z,101417.81
2023-08-13T02:31:54.820Z,101419.47
2023-08-13T02:34:23.523Z,101434.50
2023-08-13T02:36:50.153Z,101435.34
2023-08-13T02:39:16.575Z,101397.59
2023-08-13T02:41:43.040Z,101412.59
2023-08-13T02:44:09.554Z,101386.66
2023-08-13T02:46:36.109Z,101426.41
2023-08-13T02:49:02.650Z,101436.19
2023-08-13T02:51:29.122Z,101416.97
2023-08-13T02:53:55.708Z,101430.09
2023-08-13T02:56:22.185Z,101380.94
2023-08-13T02:58:48.676Z,101419.69
2023-08-13T03:01:15.235Z,101436.19
2023-08-13T03:03:52.084Z,101411.94
2023-08-13T03:06:23.584Z,101435.34
2023-08-13T03:08:50.161Z,101391.75
2023-08-13T03:11:16.736Z,101444.13
2023-08-13T03:13:43.635Z,101442.13
2023-08-13T03:16:10.294Z,101397.09
2023-08-13T03:18:37.105Z,101438.03
2023-08-13T03:21:03.617Z,101441.59
2023-08-13T03:23:30.475Z,101437.69
2023-08-13T03:25:57.131Z,101443.38
2023-08-13T03:28:23.966Z,101407.50
2023-08-13T03:30:50.443Z,101376.31
2023-08-13T03:33:16.897Z,101396.69
2023-08-13T03:35:43.975Z,101379.00
2023-08-13T03:38:10.656Z,101437.81
2023-08-13T03:40:40.960Z,101431.72
2023-08-13T03:43:07.512Z,101405.25
2023-08-13T03:45:34.048Z,101406.28
2023-08-13T03:48:00.643Z,101440.66
2023-08-13T03:50:27.186Z,101442.66
2023-08-13T03:52:53.644Z,101442.16
2023-08-13T03:55:20.088Z,101438.75
2023-08-13T03:57:46.577Z,101392.41
2023-08-13T04:00:13.619Z,101382.63
2023-08-13T04:02:40.721Z,101398.44
2023-08-13T04:05:07.992Z,101422.88
2023-08-13T04:07:34.467Z,101446.84
2023-08-13T04:10:00.948Z,101438.91
2023-08-13T04:12:27.433Z,101441.09
2023-08-13T04:14:53.859Z,101450.53
2023-08-13T04:17:20.321Z,101423.56
2023-08-13T04:19:46.782Z,101402.97
2023-08-13T04:22:13.969Z,101450.38
2023-08-13T04:24:41.076Z,101447.50
2023-08-13T04:27:07.600Z,101440.44
2023-08-13T04:29:34.115Z,101410.44
2023-08-13T04:32:00.603Z,101411.63
2023-08-13T04:34:27.173Z,101379.94
2023-08-13T04:36:53.632Z,101450.22
2023-08-13T04:39:20.118Z,101452.28
2023-08-13T04:41:46.625Z,101363.66
2023-08-13T04:44:13.096Z,101385.59
2023-08-13T04:46:39.771Z,101377.66
2023-08-13T04:49:06.563Z,101415.94
2023-08-13T04:51:32.995Z,101326.31
2023-08-13T04:53:59.468Z,101402.81
2023-08-13T04:56:25.954Z,101387.66
2023-08-13T04:58:52.535Z,101354.13
2023-08-13T05:01:19.120Z,101396.47
2023-08-13T05:03:45.908Z,101426.25
2023-08-13T05:06:12.447Z,101452.03
2023-08-13T05:08:38.999Z,101425.22
2023-08-13T05:11:05.902Z,101408.22
2023-08-13T05:13:32.390Z,101450.50
2023-08-13T05:15:58.917Z,101413.25
2023-08-13T05:19:11.901Z,101384.94
2023-08-13T05:21:43.565Z,101239.50
2023-08-13T05:24:10.061Z,101298.59
2023-08-13T05:26:36.673Z,101462.22
2023-08-13T05:29:04.271Z,101458.69
2023-08-13T05:31:31.326Z,101457.28
2023-08-13T05:34:01.020Z,101461.50
2023-08-13T05:36:27.668Z,101454.34
2023-08-13T05:38:54.234Z,101423.53
2023-08-13T05:41:20.791Z,101450.91
2023-08-13T05:43:47.289Z,101408.97
2023-08-13T05:46:13.946Z,101447.94
2023-08-13T05:48:40.759Z,101407.34
2023-08-13T05:51:07.261Z,101440.44
2023-08-13T05:53:33.729Z,101440.25
2023-08-13T05:56:01.263Z,101446.09
2023-08-13T05:58:27.776Z,101443.97
2023-08-13T06:00:54.249Z,101445.59
2023-08-13T06:03:20.857Z,101444.50
2023-08-13T06:05:48.624Z,101448.00
2023-08-13T06:08:15.235Z,101405.06
2023-08-13T06:10:41.815Z,101451.00
2023-08-13T06:13:08.313Z,101418.63
2023-08-13T06:15:34.778Z,101432.19
2023-08-13T06:18:01.344Z,101464.88
2023-08-13T06:20:27.973Z,101460.81
2023-08-13T06:22:54.660Z,101455.22
2023-08-13T06:25:21.267Z,101460.16
2023-08-13T06:27:47.742Z,101449.66
2023-08-13T06:30:14.273Z,101468.09
2023-08-13T06:32:41.066Z,101469.38
2023-08-13T06:35:07.905Z,101456.50
2023-08-13T06:37:38.982Z,101472.13
2023-08-13T06:40:13.777Z,101475.56
2023-08-13T06:42:40.229Z,101471.28
2023-08-13T06:45:07.551Z,101477.78
2023-08-13T06:47:34.109Z,101428.31
2023-08-13T06:50:00.611Z,101478.44
2023-08-13T06:52:27.238Z,101459.75
2023-08-13T06:54:53.736Z,101464.88
2023-08-13T06:57:20.199Z,101468.72
2023-08-13T06:59:46.760Z,101443.38
2023-08-13T07:02:13.467Z,101472.06
2023-08-13T07:04:40.277Z,101469.22
2023-08-13T07:07:07.229Z,101435.16
2023-08-13T07:09:35.066Z,101447.50
2023-08-13T07:12:02.075Z,101460.69
2023-08-13T07:14:28.643Z,101465.69
2023-08-13T07:16:55.060Z,101466.66
2023-08-13T07:19:21.679Z,101444.91
2023-08-13T07:21:48.140Z,101478.28
2023-08-13T07:24:14.678Z,101479.19
2023-08-13T07:26:41.186Z,101437.44
2023-08-13T07:29:08.662Z,101485.94
2023-08-13T07:31:38.979Z,101461.22
2023-08-13T07:34:05.946Z,101484.31
2023-08-13T07:36:32.779Z,101474.31
2023-08-13T07:38:59.380Z,101481.28
2023-08-13T07:41:26.209Z,101477.09
2023-08-13T07:43:53.304Z,101441.25
2023-08-13T07:46:20.381Z,101502.94
2023-08-13T07:48:46.936Z,101484.31
2023-08-13T07:51:13.428Z,101436.97
2023-08-13T07:53:39.947Z,101495.50
2023-08-13T07:56:06.533Z,101504.09
2023-08-13T07:58:33.146Z,101429.56
2023-08-13T08:00:59.683Z,101490.63
2023-08-13T08:03:26.354Z,101497.38
2023-08-13T08:05:54.056Z,101473.09
2023-08-13T08:08:20.594Z,101500.78
2023-08-13T08:10:47.070Z,101477.75
2023-08-13T08:13:13.852Z,101487.81
2023-08-13T08:15:40.701Z,101438.38
2023-08-13T08:18:07.695Z,101438.38
2023-08-13T08:20:34.397Z,101480.91
2023-08-13T08:23:00.973Z,101469.81
2023-08-13T08:25:27.796Z,101495.97
2023-08-13T08:27:54.558Z,101496.00
2023-08-13T08:30:21.299Z,101498.69
2023-08-13T08:32:48.112Z,101462.47
2023-08-13T08:35:15.256Z,101462.03
2023-08-13T08:37:41.789Z,101493.28
2023-08-13T08:40:08.823Z,101475.25
2023-08-13T08:42:37.797Z,101484.88
2023-08-13T08:45:05.664Z,101489.09
2023-08-13T08:47:34.698Z,101453.28
2023-08-13T08:50:05.092Z,101509.19
2023-08-13T08:52:35.453Z,101478.00
2023-08-13T08:55:04.020Z,101503.75
2023-08-13T08:57:30.551Z,101505.22
2023-08-13T08:59:57.122Z,101446.78
2023-08-13T09:02:23.968Z,101491.59
2023-08-13T09:04:50.598Z,101457.22
2023-08-13T09:07:17.092Z,101491.78
2023-08-13T09:09:45.460Z,101489.91
2023-08-13T09:12:11.998Z,101476.88
2023-08-13T09:14:38.600Z,101489.00
2023-08-13T09:17:05.221Z,101485.00
2023-08-13T09:19:33.446Z,101456.69
2023-08-13T09:22:04.572Z,101478.41
2023-08-13T09:24:34.013Z,101475.59
2023-08-13T09:27:01.810Z,101486.63
2023-08-13T09:29:30.468Z,101490.31
2023-08-13T09:32:00.886Z,101480.94
2023-08-13T09:34:28.765Z,101478.66
2023-08-13T09:36:56.817Z,101479.78
2023-08-13T09:39:24.829Z,101469.88
2023-08-13T09:41:52.688Z,101483.34
2023-08-13T09:44:21.334Z,101482.88
2023-08-13T09:47:01.989Z,101482.13
2023-08-13T09:49:31.603Z,101483.06
2023-08-13T09:52:02.336Z,101477.97
2023-08-13T09:54:37.847Z,101400.47
2023-08-13T09:57:07.962Z,101475.25
2023-08-13T09:59:36.061Z,101479.94
2023-08-13T10:02:07.704Z,101460.25
2023-08-13T10:04:39.229Z,101454.66
2023-08-13T10:07:06.823Z,101465.25
2023-08-13T10:09:34.819Z,101464.91
2023-08-13T10:12:02.508Z,101473.63
2023-08-13T10:14:29.940Z,101470.78
2023-08-13T10:16:56.560Z,101459.09
2023-08-13T10:19:35.524Z,101475.38
2023-08-13T10:22:02.603Z,101437.78
2023-08-13T10:24:30.361Z,101470.94
2023-08-13T10:26:59.254Z,101424.19
2023-08-13T10:29:35.006Z,101457.03
2023-08-13T10:32:10.924Z,101464.97
2023-08-13T10:34:41.032Z,101480.03
2023-08-13T10:37:19.550Z,101453.13
2023-08-13T10:39:48.076Z,101473.69
2023-08-13T10:42:38.968Z,101470.94
2023-08-13T10:45:10.979Z,101436.31
2023-08-13T10:47:48.496Z,101469.28
2023-08-13T10:50:26.902Z,101474.38
2023-08-13T10:52:55.724Z,101478.53
2023-08-13T10:55:25.938Z,101445.44
2023-08-13T10:57:54.008Z,101471.38
2023-08-13T11:00:25.466Z,101460.09
2023-08-13T11:02:53.776Z,101469.47
2023-08-13T11:05:22.200Z,101475.91
2023-08-13T11:07:48.973Z,101470.16
2023-08-13T11:10:20.355Z,101457.03
2023-08-13T11:12:48.710Z,101452.50
2023-08-13T11:15:16.622Z,101441.88
2023-08-13T11:17:48.162Z,101454.94
2023-08-13T11:20:18.367Z,101406.69
2023-08-13T11:22:45.101Z,101445.69
2023-08-13T11:25:12.057Z,101465.09
2023-08-13T11:27:39.819Z,101466.19
2023-08-13T11:30:09.464Z,101457.84
2023-08-13T11:32:40.009Z,101437.59
2023-08-13T11:35:10.749Z,101462.78
2023-08-13T11:37:38.412Z,101462.22
2023-08-13T11:40:07.446Z,101461.75
2023-08-13T11:42:34.366Z,101418.13
2023-08-13T11:45:04.428Z,101454.09
2023-08-13T11:47:31.002Z,101460.59
2023-08-13T11:50:00.111Z,101459.09
2023-08-13T11:52:26.770Z,101456.94
2023-08-13T11:54:53.525Z,101450.94
2023-08-13T11:57:21.189Z,101448.44
2023-08-13T11:59:49.947Z,101458.59
2023-08-13T12:02:19.247Z,101439.84
2023-08-13T12:04:48.204Z,101454.47
2023-08-13T12:07:14.819Z,101452.41
2023-08-13T12:09:41.337Z,101451.09
2023-08-13T12:12:08.063Z,101446.09
2023-08-13T12:14:42.721Z,101436.50
2023-08-13T12:17:09.154Z,101447.19
2023-08-13T12:19:35.640Z,101442.69
2023-08-13T12:22:02.101Z,101428.69
2023-08-13T12:24:28.647Z,101432.94
2023-08-13T12:26:55.251Z,101434.50
2023-08-13T12:29:21.769Z,101440.94
2023-08-13T12:31:48.441Z,101399.47
2023-08-13T12:34:14.866Z,101425.47
2023-08-13T12:36:41.326Z,101435.63
2023-08-13T12:39:07.888Z,101422.19
2023-08-13T12:41:39.835Z,101429.09
2023-08-13T12:44:08.333Z,101436.03
2023-08-13T12:46:34.850Z,101433.03
2023-08-13T12:49:01.392Z,101438.44
2023-08-13T12:51:28.035Z,101435.47
2023-08-13T12:53:54.472Z,101433.16
2023-08-13T12:56:21.805Z,101431.69
2023-08-13T12:58:49.510Z,101443.94
2023-08-13T13:01:16.011Z,101407.34
2023-08-13T13:03:42.553Z,101436.75
2023-08-13T13:06:09.022Z,101431.16
2023-08-13T13:08:35.466Z,101435.69
2023-08-13T13:11:02.596Z,101433.66
2023-08-13T13:13:29.537Z,101441.88
2023-08-13T13:15:56.161Z,101444.56
2023-08-13T13:18:22.805Z,101397.25
2023-08-13T13:20:49.544Z,101422.50
2023-08-13T13:23:16.017Z,101410.59
2023-08-13T13:25:42.476Z,101434.28
2023-08-13T13:28:09.928Z,101445.13
2023-08-13T13:30:36.433Z,101444.31
2023-08-13T13:33:03.444Z,101438.47
2023-08-13T13:35:30.075Z,101436.19
2023-08-13T13:37:57.447Z,101433.44
2023-08-13T13:40:25.916Z,101431.34
2023-08-13T13:42:53.185Z,101430.13
2023-08-13T13:45:20.448Z,101435.88
2023-08-13T13:47:47.329Z,101432.28
2023-08-13T13:50:16.994Z,101424.19
2023-08-13T13:52:43.870Z,101433.63
2023-08-13T13:55:10.401Z,101424.47
2023-08-13T13:57:37.318Z,101405.94
2023-08-13T14:00:07.908Z,101411.53
2023-08-13T14:02:35.197Z,101422.50
2023-08-13T14:05:02.385Z,101388.22
2023-08-13T14:07:28.862Z,101422.22
2023-08-13T14:09:55.360Z,101422.22
2023-08-13T14:12:22.276Z,101412.66
2023-08-13T14:14:48.742Z,101423.06
2023-08-13T14:17:15.265Z,101426.22
2023-08-13T14:19:43.098Z,101430.19
2023-08-13T14:22:09.924Z,101414.78
2023-08-13T14:24:36.845Z,101421.28
2023-08-13T14:27:03.296Z,101406.28
2023-08-13T14:29:30.379Z,101416.44
2023-08-13T14:31:57.005Z,101408.78
2023-08-13T14:34:23.582Z,101378.25
2023-08-13T14:36:50.038Z,101384.78
2023-08-13T14:39:16.857Z,101411.97
2023-08-13T14:41:43.389Z,101392.28
2023-08-13T14:44:10.080Z,101406.78
2023-08-13T14:46:36.723Z,101399.44
2023-08-13T14:49:03.301Z,101408.97
2023-08-13T14:51:30.105Z,101411.59
2023-08-13T14:53:57.050Z,101419.34
2023-08-13T14:56:23.749Z,101416.84
2023-08-13T14:58:50.965Z,101415.44
2023-08-13T15:01:17.687Z,101409.88
2023-08-13T15:03:44.366Z,101417.34
2023-08-13T15:06:11.083Z,101409.09
2023-08-13T15:08:37.827Z,101413.72
2023-08-13T15:11:04.429Z,101403.94
2023-08-13T15:13:31.037Z,101405.66
2023-08-13T15:15:57.796Z,101343.09
2023-08-13T15:18:24.410Z,101351.09
2023-08-13T15:20:51.354Z,101408.47
2023-08-13T15:23:19.114Z,101381.47
2023-08-13T15:28:19.986Z,101396.72
2023-08-13T15:30:46.521Z,101391.88
2023-08-13T15:33:13.118Z,101396.06
2023-08-13T15:35:51.562Z,101386.13
2023-08-13T15:38:20.354Z,101395.03
2023-08-13T15:40:49.001Z,101391.81
2023-08-13T15:43:15.495Z,101385.72
2023-08-13T15:45:41.991Z,101390.66
2023-08-13T15:48:08.538Z,101388.81
2023-08-13T15:50:35.654Z,101391.28
2023-08-13T15:53:03.323Z,101385.53
2023-08-13T15:55:30.059Z,101376.44
2023-08-13T15:57:56.554Z,101383.25
2023-08-13T16:00:23.169Z,101380.44
2023-08-13T16:02:50.818Z,101354.47
2023-08-13T16:05:17.548Z,101380.56
2023-08-13T16:07:45.529Z,101378.25
2023-08-13T16:10:12.025Z,101373.41
2023-08-13T16:12:38.503Z,101371.16
2023-08-13T16:15:10.996Z,101375.00
2023-08-13T16:17:41.147Z,101379.91
2023-08-13T16:20:12.657Z,101370.94
2023-08-13T16:22:42.268Z,101362.28
2023-08-13T16:25:09.931Z,101369.81
2023-08-13T16:27:36.757Z,101371.28
2023-08-13T16:30:04.789Z,101361.91
2023-08-13T16:32:31.564Z,101302.53
2023-08-13T16:34:58.120Z,101334.66
2023-08-13T16:37:24.566Z,101375.31
2023-08-13T16:39:51.044Z,101310.16
2023-08-13T16:42:18.109Z,101372.19
2023-08-13T16:44:44.891Z,101366.09
2023-08-13T16:47:11.374Z,101373.63
2023-08-13T16:49:37.957Z,101354.22
2023-08-13T16:52:04.698Z,101371.72
2023-08-13T16:54:31.092Z,101373.41
2023-08-13T16:56:57.619Z,101366.00
2023-08-13T16:59:24.162Z,101349.56
2023-08-13T17:01:50.650Z,101359.78
2023-08-13T17:04:17.158Z,101354.44
2023-08-13T17:06:43.847Z,101328.59
2023-08-13T17:09:10.543Z,101324.56
2023-08-13T17:11:36.980Z,101358.84
2023-08-13T17:14:03.545Z,101324.09
2023-08-13T17:16:30.119Z,101354.59
2023-08-13T17:18:56.654Z,101321.38
2023-08-13T17:21:23.123Z,101355.75
2023-08-13T17:23:49.539Z,101350.91
2023-08-13T17:26:16.039Z,101309.66
2023-08-13T17:28:42.759Z,101308.59
2023-08-13T17:31:09.253Z,101352.56
2023-08-13T17:33:35.760Z,101363.16
2023-08-13T17:36:02.289Z,101366.72
2023-08-13T17:38:28.760Z,101366.97
2023-08-13T17:40:55.294Z,101364.38
2023-08-13T17:43:21.876Z,101364.13
2023-08-13T17:45:48.428Z,101351.50
2023-08-13T17:48:16.496Z,101362.19
2023-08-13T17:50:44.475Z,101358.84
2023-08-13T17:53:12.641Z,101362.06
2023-08-13T17:55:39.092Z,101348.81
2023-08-13T17:58:05.563Z,101355.84
2023-08-13T18:00:32.064Z,101356.78
2023-08-13T18:02:58.655Z,101347.81
2023-08-13T18:05:25.561Z,101361.28
2023-08-13T18:07:58.370Z,101361.44
2023-08-13T18:10:31.025Z,101362.28
2023-08-13T18:12:57.561Z,101358.84
2023-08-13T18:15:24.513Z,101347.78
2023-08-13T18:17:51.284Z,101354.09
2023-08-13T18:20:18.268Z,101373.25
2023-08-13T18:22:45.041Z,101349.97
2023-08-13T18:25:12.748Z,101383.25
2023-08-13T18:27:41.081Z,101379.53
2023-08-13T18:30:08.227Z,101377.53
2023-08-13T18:32:34.828Z,101383.94
2023-08-13T18:35:01.429Z,101382.69
2023-08-13T18:37:27.921Z,101372.03
2023-08-13T18:39:58.078Z,101378.50
2023-08-13T18:42:24.641Z,101379.28
2023-08-13T18:44:51.321Z,101338.75
2023-08-13T18:47:17.847Z,101383.19
2023-08-13T18:49:44.368Z,101363.81
2023-08-13T18:52:10.995Z,101372.88
2023-08-13T18:54:37.463Z,101352.06
2023-08-13T18:57:04.076Z,101381.81
2023-08-13T18:59:30.854Z,101385.41
2023-08-13T19:01:57.601Z,101396.94
2023-08-13T19:04:24.131Z,101391.28
2023-08-13T19:06:50.642Z,101387.50
2023-08-13T19:09:17.087Z,101391.47
2023-08-13T19:11:43.684Z,101397.50
2023-08-13T19:14:11.489Z,101392.81
2023-08-13T19:16:38.650Z,101404.31
2023-08-13T19:19:05.931Z,101409.25
2023-08-13T19:21:32.627Z,101401.41
2023-08-13T19:23:59.098Z,101402.41
2023-08-13T19:26:26.091Z,101378.66
2023-08-13T19:28:53.222Z,101401.03
2023-08-13T19:31:19.762Z,101395.97
2023-08-13T19:33:46.216Z,101394.81
2023-08-13T19:36:13.761Z,101382.75
2023-08-13T19:38:40.731Z,101399.44
2023-08-13T19:41:07.364Z,101394.31
2023-08-13T19:43:34.048Z,101382.47
2023-08-13T19:46:00.825Z,101346.47
2023-08-13T19:48:27.316Z,101400.75
2023-08-13T19:50:54.456Z,101347.72
2023-08-13T19:53:21.680Z,101388.41
2023-08-13T19:55:50.497Z,101394.88
2023-08-13T19:58:17.859Z,101393.28
2023-08-13T20:00:44.526Z,101399.47
2023-08-13T20:03:11.594Z,101386.59
2023-08-13T20:05:38.167Z,101378.34
2023-08-13T20:08:05.211Z,101405.03
2023-08-13T20:10:32.941Z,101395.16
2023-08-13T20:12:59.929Z,101396.91
2023-08-13T20:15:27.096Z,101385.06
2023-08-13T20:17:56.927Z,101398.06
2023-08-13T20:20:23.433Z,101402.16
2023-08-13T20:22:49.975Z,101394.81
2023-08-13T20:25:17.048Z,101390.13
2023-08-13T20:27:43.490Z,101399.00
2023-08-13T20:30:10.368Z,101398.91
2023-08-13T20:32:37.322Z,101397.19
2023-08-13T20:35:04.514Z,101400.63
2023-08-13T20:37:31.490Z,101399.53
2023-08-13T20:39:58.788Z,101399.06
2023-08-13T20:42:26.249Z,101389.97
2023-08-13T20:44:52.894Z,101358.63
2023-08-13T20:47:19.370Z,101372.72
2023-08-13T20:49:46.047Z,101384.19
2023-08-13T20:52:12.620Z,101382.03
2023-08-13T20:54:39.076Z,101381.59
2023-08-13T20:57:05.806Z,101371.47
2023-08-13T20:59:32.275Z,101361.41
2023-08-13T21:01:58.721Z,101365.31
2023-08-13T21:04:25.213Z,101322.47
2023-08-13T21:06:51.728Z,101381.91
2023-08-13T21:09:18.274Z,101386.84
2023-08-13T21:11:45.010Z,101361.31
2023-08-13T21:14:11.501Z,101383.81
2023-08-13T21:16:37.987Z,101387.94
2023-08-13T21:19:04.452Z,101359.84
2023-08-13T21:21:30.918Z,101358.34
2023-08-13T21:23:57.440Z,101389.00
2023-08-13T21:26:25.169Z,101381.47
2023-08-13T21:28:51.991Z,101390.59
2023-08-13T21:31:18.615Z,101380.47
2023-08-13T21:33:45.069Z,101386.53
2023-08-13T21:36:11.581Z,101363.34
2023-08-13T21:38:38.066Z,101382.41
2023-08-13T21:41:04.861Z,101387.81
2023-08-13T21:43:31.326Z,101384.44
2023-08-13T21:45:57.787Z,101389.69
2023-08-13T21:48:24.254Z,101378.28
2023-08-13T21:50:50.704Z,101389.88
2023-08-13T21:53:17.216Z,101388.38
2023-08-13T21:55:43.851Z,101387.91
2023-08-13T21:58:10.347Z,101362.38
2023-08-13T22:00:36.831Z,101389.28
2023-08-13T22:03:04.230Z,101390.47
2023-08-13T22:05:31.797Z,101385.66
2023-08-13T22:07:58.235Z,101393.22
2023-08-13T22:10:24.689Z,101373.09
2023-08-13T22:12:51.128Z,101404.88
2023-08-13T22:15:17.605Z,101406.91
2023-08-13T22:17:44.094Z,101385.75
2023-08-13T22:20:10.778Z,101412.16
2023-08-13T22:22:37.276Z,101410.81
2023-08-13T22:25:05.243Z,101415.03
2023-08-13T22:27:31.829Z,101389.34
2023-08-13T22:29:58.386Z,101413.41
2023-08-13T22:32:25.103Z,101416.78
2023-08-13T22:34:52.194Z,101377.38
2023-08-13T22:37:18.731Z,101411.41
2023-08-13T22:39:45.170Z,101420.34
2023-08-13T22:42:11.652Z,101417.97
2023-08-13T22:44:38.140Z,101409.41
2023-08-13T22:47:04.844Z,101415.16
2023-08-13T22:49:32.609Z,101415.84
2023-08-13T22:51:59.205Z,101412.47
2023-08-13T22:54:25.960Z,101421.56
2023-08-13T22:56:52.563Z,101427.81
2023-08-13T22:59:19.079Z,101423.44
2023-08-13T23:01:45.649Z,101410.28
2023-08-13T23:04:12.662Z,101409.78
2023-08-13T23:06:39.309Z,101410.78
2023-08-13T23:09:07.423Z,101402.41
2023-08-13T23:11:33.944Z,101411.84
2023-08-13T23:14:00.591Z,101413.31
2023-08-13T23:16:27.240Z,101403.91
2023-08-13T23:18:53.689Z,101406.44
2023-08-13T23:21:20.144Z,101408.75
2023-08-13T23:23:46.606Z,101401.88
2023-08-13T23:26:13.132Z,101407.75
2023-08-13T23:28:40.926Z,101407.06
2023-08-13T23:31:07.464Z,101353.50
2023-08-13T23:33:33.993Z,101403.06
2023-08-13T23:36:00.427Z,101405.78
2023-08-13T23:38:26.924Z,101395.47
2023-08-13T23:40:53.406Z,101405.44
2023-08-13T23:43:19.851Z,101397.47
2023-08-13T23:45:48.531Z,101358.97
2023-08-13T23:48:15.239Z,101354.91
2023-08-13T23:50:54.060Z,101404.78
2023-08-13T23:53:22.060Z,101399.03
2023-08-13T23:55:48.523Z,101403.09
2023-08-13T23:58:15.064Z,101397.53
